createdAt,value
2019-05-01T00:02:57.002Z,12.00
2019-05-01T00:13:03.656Z,11.80
2019-05-01T00:23:09.499Z,11.70
2019-05-01T00:33:14.987Z,11.60
2019-05-01T00:43:20.525Z,11.30
2019-05-01T00:53:25.811Z,11.30
2019-05-01T01:03:31.197Z,11.10
2019-05-01T01:13:36.491Z,10.90
2019-05-01T01:23:42.077Z,11.00
2019-05-01T01:33:47.400Z,10.90
2019-05-01T01:44:17.503Z,10.90
2019-05-01T01:54:23.690Z,10.80
2019-05-01T02:04:47.905Z,10.70
2019-05-01T02:14:53.197Z,10.50
2019-05-01T02:24:58.459Z,10.50
2019-05-01T02:35:04.180Z,10.50
2019-05-01T02:45:09.699Z,10.60
2019-05-01T02:55:23.457Z,10.70
2019-05-01T03:05:28.771Z,10.80
2019-05-01T03:15:35.669Z,10.80
2019-05-01T03:25:41.066Z,10.70
2019-05-01T03:35:46.465Z,10.90
2019-05-01T03:45:52.284Z,10.90
2019-05-01T03:55:57.800Z,10.90
2019-05-01T04:06:03.046Z,11.20
2019-05-01T04:16:08.912Z,11.70
2019-05-01T04:26:14.601Z,12.10
2019-05-01T04:36:25.493Z,15.20
2019-05-01T04:46:30.814Z,17.30
2019-05-01T04:56:36.078Z,19.70
2019-05-01T05:06:42.278Z,20.30
2019-05-01T05:16:52.130Z,22.60
2019-05-01T05:26:59.371Z,25.40
2019-05-01T05:37:20.168Z,26.90
2019-05-01T05:47:25.677Z,25.00
2019-05-01T05:57:57.907Z,21.90
2019-05-01T06:08:13.713Z,23.20
2019-05-01T06:18:47.966Z,23.60
2019-05-01T06:28:56.067Z,22.50
2019-05-01T06:39:01.711Z,21.90
2019-05-01T06:49:30.942Z,23.60
2019-05-01T06:59:39.022Z,23.90
2019-05-01T07:09:49.216Z,25.20
2019-05-01T07:20:12.062Z,25.50
2019-05-01T07:30:29.115Z,25.90
2019-05-01T07:40:34.704Z,26.20
2019-05-01T07:50:40.640Z,26.50
2019-05-01T08:01:13.214Z,23.70
2019-05-01T08:11:16.593Z,23.30
2019-05-01T08:21:44.022Z,23.10
2019-05-01T08:32:03.438Z,23.10
2019-05-01T08:42:08.175Z,22.20
2019-05-01T08:52:14.760Z,23.20
2019-05-01T09:02:21.683Z,22.70
2019-05-01T09:12:26.957Z,22.20
2019-05-01T09:22:32.681Z,21.60
2019-05-01T09:32:38.152Z,22.10
2019-05-01T09:42:44.071Z,22.10
2019-05-01T09:53:00.850Z,22.00
2019-05-01T10:03:06.480Z,21.80
2019-05-01T10:13:12.227Z,21.80
2019-05-01T10:23:17.693Z,21.70
2019-05-01T10:33:29.000Z,20.90
2019-05-01T10:43:33.126Z,20.50
2019-05-01T10:53:38.725Z,20.20
2019-05-01T11:03:44.420Z,20.20
2019-05-01T11:13:49.944Z,20.10
2019-05-01T11:23:55.394Z,19.90
2019-05-01T11:34:15.338Z,20.00
2019-05-01T11:44:20.820Z,20.20
2019-05-01T11:54:26.395Z,20.90
2019-05-01T12:04:31.882Z,21.30
2019-05-01T12:14:37.598Z,21.00
2019-05-01T12:24:43.038Z,21.10
2019-05-01T12:34:48.507Z,21.30
2019-05-01T12:44:54.127Z,21.40
2019-05-01T12:55:07.499Z,21.80
2019-05-01T13:05:13.064Z,21.90
2019-05-01T13:15:18.616Z,21.90
2019-05-01T13:25:24.260Z,21.80
2019-05-01T13:35:30.653Z,21.70
2019-05-01T13:45:36.101Z,21.50
2019-05-01T13:55:41.496Z,21.20
2019-05-01T14:05:47.249Z,20.80
2019-05-01T14:15:52.999Z,20.50
2019-05-01T14:26:05.043Z,20.50
2019-05-01T14:36:10.401Z,19.90
2019-05-01T14:46:15.801Z,19.80
2019-05-01T14:56:21.205Z,19.70
2019-05-01T15:06:28.286Z,19.50
2019-05-01T15:16:48.554Z,19.30
2019-05-01T15:26:53.995Z,19.10
2019-05-01T15:36:59.470Z,18.60
2019-05-01T15:47:05.184Z,18.40
2019-05-01T15:57:11.637Z,18.40
2019-05-01T16:07:17.339Z,18.10
2019-05-01T16:17:22.829Z,17.80
2019-05-01T16:27:28.129Z,17.60
2019-05-01T16:37:33.826Z,17.20
2019-05-01T16:47:39.246Z,17.10
2019-05-01T16:57:44.667Z,17.10
2019-05-01T17:08:14.887Z,17.10
2019-05-01T17:18:22.303Z,17.10
2019-05-01T17:28:27.622Z,16.90
2019-05-01T17:38:32.989Z,16.60
2019-05-01T17:48:38.371Z,16.40
2019-05-01T17:58:43.814Z,16.10
2019-05-01T18:09:01.892Z,15.90
2019-05-01T18:18:56.255Z,16.50
2019-05-01T18:29:09.191Z,15.50
2019-05-01T18:39:27.123Z,15.30
2019-05-01T18:49:33.855Z,15.10
2019-05-01T18:59:39.258Z,15.00
2019-05-01T19:09:44.747Z,14.90
2019-05-01T19:19:50.262Z,15.00
2019-05-01T19:29:57.890Z,15.00
2019-05-01T19:40:02.744Z,15.10
2019-05-01T19:50:10.110Z,15.00
2019-05-01T20:00:18.098Z,14.90
2019-05-01T20:10:30.773Z,14.90
2019-05-01T20:20:36.216Z,14.70
2019-05-01T20:30:42.599Z,14.70
2019-05-01T20:40:47.877Z,14.70
2019-05-01T20:50:53.541Z,14.70
2019-05-01T21:01:02.723Z,14.70
2019-05-01T21:11:12.981Z,14.70
2019-05-01T21:21:18.270Z,14.80
2019-05-01T21:31:24.112Z,14.90
2019-05-01T21:41:32.788Z,14.90
2019-05-01T21:51:42.294Z,15.00
2019-05-01T22:01:44.582Z,15.10
2019-05-01T22:11:50.193Z,15.10
2019-05-01T22:22:23.318Z,15.00
2019-05-01T22:32:36.159Z,14.90
2019-05-01T22:42:41.613Z,14.50
2019-05-01T22:52:46.892Z,14.10
2019-05-01T23:02:52.581Z,13.90
2019-05-01T23:12:57.970Z,13.80
2019-05-01T23:23:03.421Z,13.70
2019-05-01T23:33:08.842Z,13.70
2019-05-01T23:43:15.478Z,14.00
2019-05-01T23:53:20.802Z,13.80
